createdAt,value
2018-12-12T00:02:07.000Z,45.27
2018-12-12T00:04:35.282Z,44.33
2018-12-12T00:07:03.673Z,38.47
2018-12-12T00:09:31.956Z,36.33
2018-12-12T00:12:00.253Z,39.57
2018-12-12T00:14:28.529Z,42.73
2018-12-12T00:16:56.830Z,44.13
2018-12-12T00:19:25.337Z,46.73
2018-12-12T00:21:54.183Z,42.10
2018-12-12T00:24:22.457Z,46.07
2018-12-12T00:26:50.729Z,41.47
2018-12-12T00:29:19.009Z,40.27
2018-12-12T00:31:47.317Z,37.07
2018-12-12T00:34:15.714Z,42.80
2018-12-12T00:36:44.005Z,37.93
2018-12-12T00:39:12.679Z,39.53
2018-12-12T00:41:41.185Z,39.27
2018-12-12T00:44:10.161Z,38.00
2018-12-12T00:46:38.649Z,37.47
2018-12-12T00:49:07.064Z,39.20
2018-12-12T00:51:35.765Z,36.20
2018-12-12T00:54:04.193Z,42.93
2018-12-12T00:56:32.589Z,39.53
2018-12-12T00:59:01.441Z,45.43
2018-12-12T01:01:30.062Z,43.83
2018-12-12T01:03:58.461Z,43.40
2018-12-12T01:06:26.773Z,40.67
2018-12-12T01:08:55.057Z,42.90
2018-12-12T01:11:29.338Z,45.67
2018-12-12T01:13:58.040Z,40.40
2018-12-12T01:16:26.353Z,46.00
2018-12-12T01:18:55.160Z,41.03
2018-12-12T01:21:23.577Z,45.77
2018-12-12T01:23:51.870Z,38.00
2018-12-12T01:26:20.489Z,44.63
2018-12-12T01:28:48.793Z,38.73
2018-12-12T01:31:17.345Z,37.20
2018-12-12T01:33:45.965Z,31.10
2018-12-12T01:36:14.249Z,34.23
2018-12-12T01:38:42.571Z,36.47
2018-12-12T01:41:11.385Z,35.30
2018-12-12T01:43:39.685Z,35.07
2018-12-12T01:46:07.943Z,36.80
2018-12-12T01:48:36.254Z,33.83
2018-12-12T01:51:04.549Z,30.87
2018-12-12T01:53:33.216Z,31.07
2018-12-12T01:56:01.769Z,30.77
2018-12-12T01:58:30.249Z,30.60
2018-12-12T02:00:58.733Z,31.23
2018-12-12T02:03:27.326Z,34.20
2018-12-12T02:05:55.666Z,34.00
2018-12-12T02:08:24.317Z,32.10
2018-12-12T02:10:53.253Z,30.13
2018-12-12T02:13:36.155Z,31.33
2018-12-12T02:16:07.487Z,29.43
2018-12-12T02:18:38.750Z,34.03
2018-12-12T02:21:07.085Z,28.23
2018-12-12T02:23:36.602Z,30.33
2018-12-12T02:26:05.074Z,28.43
2018-12-12T02:28:34.098Z,33.70
2018-12-12T02:31:02.564Z,29.57
2018-12-12T02:33:30.998Z,29.20
2018-12-12T02:35:59.518Z,29.30
2018-12-12T02:38:27.866Z,32.60
2018-12-12T02:40:56.173Z,30.27
2018-12-12T02:43:24.545Z,29.27
2018-12-12T02:45:52.895Z,29.73
2018-12-12T02:48:21.263Z,31.87
2018-12-12T02:50:49.585Z,30.33
2018-12-12T02:53:18.363Z,27.37
2018-12-12T02:55:46.873Z,28.23
2018-12-12T02:58:15.209Z,31.40
2018-12-12T03:00:43.546Z,29.90
2018-12-12T03:03:12.287Z,26.17
2018-12-12T03:05:40.650Z,27.60
2018-12-12T03:08:08.994Z,26.33
2018-12-12T03:10:37.453Z,37.47
2018-12-12T03:13:05.786Z,30.30
2018-12-12T03:15:34.142Z,30.30
2018-12-12T03:18:02.462Z,32.10
2018-12-12T03:20:31.186Z,29.07
2018-12-12T03:22:59.501Z,32.17
2018-12-12T03:25:27.831Z,28.57
2018-12-12T03:27:56.128Z,35.63
2018-12-12T03:30:24.450Z,29.50
2018-12-12T03:32:52.783Z,29.77
2018-12-12T03:35:21.221Z,27.77
2018-12-12T03:37:50.005Z,29.03
2018-12-12T03:40:19.149Z,28.53
2018-12-12T03:42:48.074Z,30.77
2018-12-12T03:45:16.417Z,27.93
2018-12-12T03:47:44.721Z,27.37
2018-12-12T03:50:13.062Z,32.53
2018-12-12T03:52:41.374Z,29.90
2018-12-12T03:55:09.907Z,32.60
2018-12-12T03:57:38.352Z,30.77
2018-12-12T04:00:08.536Z,27.43
2018-12-12T04:02:36.861Z,26.80
2018-12-12T04:05:06.348Z,34.73
2018-12-12T04:07:35.084Z,28.10
2018-12-12T04:10:03.694Z,28.90
2018-12-12T04:12:32.325Z,26.53
2018-12-12T04:15:00.647Z,27.93
2018-12-12T04:17:28.968Z,24.00
2018-12-12T04:19:57.803Z,27.27
2018-12-12T04:22:26.833Z,27.83
2018-12-12T04:24:55.264Z,28.67
2018-12-12T04:27:23.586Z,29.40
2018-12-12T04:29:51.958Z,31.70
2018-12-12T04:32:20.710Z,30.90
2018-12-12T04:34:49.030Z,32.10
2018-12-12T04:37:17.472Z,31.60
2018-12-12T04:39:46.124Z,34.43
2018-12-12T04:42:14.433Z,32.87
2018-12-12T04:44:42.741Z,32.83
2018-12-12T04:47:11.085Z,30.40
2018-12-12T04:49:39.410Z,29.83
2018-12-12T04:52:08.049Z,32.47
2018-12-12T04:54:36.509Z,30.57
2018-12-12T04:57:05.198Z,25.93
2018-12-12T04:59:33.601Z,30.43
2018-12-12T05:02:01.936Z,25.73
2018-12-12T05:04:30.250Z,29.27
2018-12-12T05:06:58.572Z,30.00
2018-12-12T05:09:26.889Z,28.17
2018-12-12T05:11:55.218Z,27.07
2018-12-12T05:14:23.870Z,33.30
2018-12-12T05:16:52.369Z,30.90
2018-12-12T05:19:20.821Z,29.27
2018-12-12T05:21:49.170Z,28.77
2018-12-12T05:24:17.481Z,27.77
2018-12-12T05:26:46.653Z,29.07
2018-12-12T05:29:15.255Z,36.40
2018-12-12T05:31:43.917Z,30.53
2018-12-12T05:34:12.770Z,29.03
2018-12-12T05:36:41.095Z,28.90
2018-12-12T05:39:09.505Z,28.20
2018-12-12T05:41:37.817Z,31.30
2018-12-12T05:44:06.138Z,28.90
2018-12-12T05:46:34.490Z,35.33
2018-12-12T05:49:03.129Z,28.93
2018-12-12T05:51:31.453Z,32.27
2018-12-12T05:54:00.067Z,27.93
2018-12-12T05:56:28.387Z,29.13
2018-12-12T05:58:57.029Z,29.47
2018-12-12T06:01:25.530Z,32.27
2018-12-12T06:03:54.030Z,37.77
2018-12-12T06:06:22.477Z,31.83
2018-12-12T06:08:51.317Z,36.43
2018-12-12T06:11:19.968Z,39.20
2018-12-12T06:13:48.289Z,33.10
2018-12-12T06:16:16.613Z,42.10
2018-12-12T06:18:45.033Z,41.10
2018-12-12T06:21:13.373Z,42.50
2018-12-12T06:23:41.717Z,39.00
2018-12-12T06:26:10.337Z,38.13
2018-12-12T06:28:38.866Z,36.77
2018-12-12T06:31:07.189Z,40.33
2018-12-12T06:33:35.544Z,44.67
2018-12-12T06:36:03.846Z,45.23
2018-12-12T06:38:32.199Z,40.20
2018-12-12T06:41:00.722Z,43.03
2018-12-12T06:43:29.063Z,45.27
2018-12-12T06:45:57.377Z,41.47
2018-12-12T06:48:26.126Z,46.40
2018-12-12T06:50:54.417Z,41.30
2018-12-12T06:53:23.148Z,41.67
2018-12-12T06:55:51.605Z,37.33
2018-12-12T06:58:19.958Z,36.27
2018-12-12T07:00:48.293Z,37.97
2018-12-12T07:03:16.639Z,35.37
2018-12-12T07:05:44.969Z,37.30
2018-12-12T07:08:13.517Z,36.57
2018-12-12T07:10:41.961Z,39.97
2018-12-12T07:13:10.506Z,36.20
2018-12-12T07:15:39.277Z,40.60
2018-12-12T07:18:07.938Z,37.43
2018-12-12T07:20:36.300Z,38.17
2018-12-12T07:23:04.928Z,39.13
2018-12-12T07:25:33.458Z,34.43
2018-12-12T07:28:01.774Z,37.17
2018-12-12T07:30:30.232Z,33.40
2018-12-12T07:32:58.573Z,33.17
2018-12-12T07:35:26.907Z,34.77
2018-12-12T07:37:55.333Z,31.40
2018-12-12T07:40:23.672Z,35.87
2018-12-12T07:42:51.992Z,35.20
2018-12-12T07:45:20.757Z,35.47
2018-12-12T07:47:49.069Z,36.73
2018-12-12T07:50:17.409Z,30.97
2018-12-12T07:52:45.923Z,34.13
2018-12-12T07:55:14.244Z,31.80
2018-12-12T07:57:42.620Z,34.30
2018-12-12T08:00:11.208Z,30.70
2018-12-12T08:02:39.610Z,32.63
2018-12-12T08:05:08.061Z,36.27
2018-12-12T08:07:37.069Z,31.53
2018-12-12T08:10:06.725Z,31.03
2018-12-12T08:12:35.018Z,31.77
2018-12-12T08:15:04.090Z,31.47
2018-12-12T08:17:32.403Z,29.27
2018-12-12T08:20:01.021Z,30.17
2018-12-12T08:22:29.489Z,33.17
2018-12-12T08:24:57.995Z,31.47
2018-12-12T08:27:26.465Z,28.60
2018-12-12T08:29:54.960Z,28.20
2018-12-12T08:32:23.669Z,30.17
2018-12-12T08:34:52.377Z,36.47
2018-12-12T08:37:20.894Z,33.07
2018-12-12T08:39:49.385Z,32.60
2018-12-12T08:42:17.716Z,34.67
2018-12-12T08:44:46.033Z,30.00
2018-12-12T08:47:14.354Z,32.60
2018-12-12T08:49:42.649Z,29.07
2018-12-12T08:52:11.314Z,25.17
2018-12-12T08:54:39.637Z,25.03
2018-12-12T08:57:08.865Z,24.67
2018-12-12T08:59:37.177Z,24.27
2018-12-12T09:02:05.733Z,26.63
2018-12-12T09:04:34.021Z,23.73
2018-12-12T09:07:02.333Z,24.20
2018-12-12T09:09:30.646Z,20.03
2018-12-12T09:11:59.157Z,19.27
2018-12-12T09:14:27.502Z,19.13
2018-12-12T09:16:55.849Z,16.73
2018-12-12T09:19:24.573Z,18.73
2018-12-12T09:21:53.078Z,20.67
2018-12-12T09:24:22.046Z,19.50
2018-12-12T09:26:51.058Z,18.67
2018-12-12T09:29:19.516Z,20.67
2018-12-12T09:31:48.026Z,18.33
2018-12-12T09:34:16.339Z,20.07
2018-12-12T09:36:44.683Z,18.70
2018-12-12T09:39:12.998Z,16.67
2018-12-12T09:41:41.789Z,18.67
2018-12-12T09:44:10.610Z,17.00
2018-12-12T09:46:38.937Z,17.43
2018-12-12T09:49:07.253Z,16.83
2018-12-12T09:51:35.557Z,19.20
2018-12-12T09:54:03.997Z,18.63
2018-12-12T09:56:32.304Z,16.17
2018-12-12T09:59:00.601Z,14.97
2018-12-12T10:01:29.273Z,15.57
2018-12-12T10:03:57.773Z,13.30
2018-12-12T10:06:26.233Z,13.20
2018-12-12T10:08:54.749Z,11.97
2018-12-12T10:11:23.213Z,10.47
2018-12-12T10:13:51.701Z,10.33
2018-12-12T10:16:20.173Z,12.10
2018-12-12T10:18:48.666Z,10.67
2018-12-12T10:21:17.125Z,12.63
2018-12-12T10:23:45.877Z,11.50
2018-12-12T10:26:14.610Z,9.60
2018-12-12T10:28:43.097Z,12.07
2018-12-12T10:31:11.422Z,10.87
2018-12-12T10:33:40.074Z,9.13
2018-12-12T10:36:08.529Z,8.10
2018-12-12T10:38:36.850Z,10.30
2018-12-12T10:41:05.186Z,11.67
2018-12-12T10:43:33.998Z,11.47
2018-12-12T10:46:02.453Z,12.23
2018-12-12T10:48:30.966Z,12.97
2018-12-12T10:50:59.401Z,14.60
2018-12-12T10:53:27.897Z,13.40
2018-12-12T10:55:56.241Z,13.23
2018-12-12T10:58:24.541Z,14.30
2018-12-12T11:00:58.796Z,14.53
2018-12-12T11:03:43.938Z,16.47
2018-12-12T11:06:09.004Z,16.30
2018-12-12T11:08:37.322Z,13.80
2018-12-12T11:11:05.903Z,16.70
2018-12-12T11:13:34.702Z,17.17
2018-12-12T11:16:03.205Z,16.73
2018-12-12T11:18:31.661Z,18.00
2018-12-12T11:21:00.157Z,16.90
2018-12-12T11:23:28.628Z,16.97
2018-12-12T11:25:56.965Z,17.57
2018-12-12T11:28:25.273Z,17.47
2018-12-12T11:30:53.604Z,17.97
2018-12-12T11:33:21.927Z,17.50
2018-12-12T11:35:50.563Z,14.77
2018-12-12T11:38:18.881Z,17.30
2018-12-12T11:40:47.228Z,13.23
2018-12-12T11:43:16.577Z,13.07
2018-12-12T11:45:44.917Z,13.50
2018-12-12T11:48:13.457Z,15.60
2018-12-12T11:50:42.071Z,15.47
2018-12-12T11:53:10.408Z,13.30
2018-12-12T11:55:38.904Z,14.87
2018-12-12T11:58:07.225Z,17.90
2018-12-12T12:00:35.902Z,16.83
2018-12-12T12:03:04.338Z,13.07
2018-12-12T12:05:32.850Z,15.63
2018-12-12T12:08:01.595Z,12.10
2018-12-12T12:10:29.913Z,12.07
2018-12-12T12:12:58.345Z,11.67
2018-12-12T12:15:27.660Z,10.77
2018-12-12T12:17:56.255Z,11.70
2018-12-12T12:20:24.581Z,12.00
2018-12-12T12:22:53.010Z,10.30
2018-12-12T12:25:21.314Z,9.97
2018-12-12T12:27:49.689Z,12.93
2018-12-12T12:30:18.258Z,12.50
2018-12-12T12:32:46.575Z,13.60
2018-12-12T12:35:15.101Z,12.80
2018-12-12T12:37:44.653Z,11.43
2018-12-12T12:40:12.959Z,13.67
2018-12-12T12:42:41.277Z,11.00
2018-12-12T12:45:09.701Z,10.83
2018-12-12T12:47:38.062Z,12.83
2018-12-12T12:50:07.142Z,13.10
2018-12-12T12:52:35.478Z,9.43
2018-12-12T12:55:04.105Z,10.97
2018-12-12T12:57:32.497Z,10.83
2018-12-12T13:00:00.819Z,10.03
2018-12-12T13:02:29.462Z,10.07
2018-12-12T13:04:59.465Z,10.17
2018-12-12T13:07:27.957Z,10.80
2018-12-12T13:09:56.425Z,11.10
2018-12-12T13:12:24.738Z,9.70
2018-12-12T13:14:53.413Z,12.00
2018-12-12T13:17:21.733Z,13.40
2018-12-12T13:19:50.016Z,10.67
2018-12-12T13:22:18.325Z,10.80
2018-12-12T13:24:46.610Z,10.73
2018-12-12T13:27:14.909Z,13.60
2018-12-12T13:29:43.201Z,12.90
2018-12-12T13:32:11.805Z,12.63
2018-12-12T13:34:40.218Z,11.47
2018-12-12T13:37:08.505Z,13.67
2018-12-12T13:39:37.173Z,11.80
2018-12-12T13:42:05.681Z,10.10
2018-12-12T13:44:34.133Z,7.37
2018-12-12T13:47:02.416Z,6.70
2018-12-12T13:49:31.097Z,8.03
2018-12-12T13:51:59.697Z,7.03
2018-12-12T13:54:27.989Z,8.30
2018-12-12T13:56:56.554Z,7.87
2018-12-12T13:59:24.841Z,6.80
2018-12-12T14:01:53.122Z,6.67
2018-12-12T14:04:22.910Z,6.57
2018-12-12T14:06:51.517Z,6.20
2018-12-12T14:09:19.805Z,5.20
2018-12-12T14:11:48.077Z,7.63
2018-12-12T14:14:16.368Z,6.23
2018-12-12T14:16:44.633Z,5.77
2018-12-12T14:19:12.937Z,5.40
2018-12-12T14:21:41.205Z,6.07
2018-12-12T14:24:09.870Z,7.03
2018-12-12T14:26:38.141Z,4.77
2018-12-12T14:29:06.437Z,5.97
2018-12-12T14:31:34.709Z,5.17
2018-12-12T14:34:03.397Z,4.90
2018-12-12T14:36:31.689Z,4.63
2018-12-12T14:39:00.242Z,4.47
2018-12-12T14:41:28.522Z,4.03
2018-12-12T14:43:56.836Z,4.00
2018-12-12T14:46:25.178Z,4.13
2018-12-12T14:48:53.657Z,4.13
2018-12-12T14:51:22.029Z,3.53
2018-12-12T14:53:50.374Z,4.57
2018-12-12T14:56:19.084Z,3.40
2018-12-12T14:58:47.389Z,4.00
2018-12-12T15:01:15.669Z,4.90
2018-12-12T15:03:44.040Z,3.50
2018-12-12T15:06:12.423Z,4.37
2018-12-12T15:08:40.729Z,3.97
2018-12-12T15:11:08.998Z,4.10
2018-12-12T15:13:37.424Z,4.83
2018-12-12T15:16:05.938Z,4.67
2018-12-12T15:18:34.917Z,4.23
2018-12-12T15:21:03.192Z,5.43
2018-12-12T15:23:31.889Z,5.00
2018-12-12T15:26:00.201Z,5.30
2018-12-12T15:28:28.473Z,5.90
2018-12-12T15:30:56.829Z,5.57
2018-12-12T15:33:25.286Z,6.00
2018-12-12T15:35:53.585Z,6.70
2018-12-12T15:38:21.869Z,5.37
2018-12-12T15:40:50.173Z,6.73
2018-12-12T15:43:18.459Z,8.20
2018-12-12T15:45:46.751Z,6.90
2018-12-12T15:48:15.042Z,4.97
2018-12-12T15:50:43.346Z,7.20
2018-12-12T15:53:12.085Z,7.40
2018-12-12T15:55:40.377Z,7.87
2018-12-12T15:58:08.682Z,6.80
2018-12-12T16:00:37.080Z,7.63
2018-12-12T16:03:05.575Z,9.67
2018-12-12T16:05:33.853Z,8.60
2018-12-12T16:08:02.359Z,8.30
2018-12-12T16:10:30.678Z,8.63
2018-12-12T16:12:58.961Z,6.53
2018-12-12T16:15:27.262Z,7.50
2018-12-12T16:17:56.257Z,9.03
2018-12-12T16:20:24.545Z,8.13
2018-12-12T16:22:52.874Z,5.20
2018-12-12T16:25:21.234Z,16.77
2018-12-12T16:27:49.514Z,28.30
2018-12-12T16:30:17.830Z,6.73
2018-12-12T16:32:46.101Z,7.20
2018-12-12T16:35:14.373Z,9.30
2018-12-12T16:37:42.937Z,6.40
2018-12-12T16:40:11.717Z,6.67
2018-12-12T16:42:40.009Z,8.47
2018-12-12T16:45:08.521Z,7.47
2018-12-12T16:47:36.814Z,7.33
2018-12-12T16:50:05.861Z,10.43
2018-12-12T16:52:34.169Z,10.13
2018-12-12T16:55:03.265Z,6.23
2018-12-12T16:57:31.561Z,5.57
2018-12-12T16:59:59.833Z,6.53
2018-12-12T17:02:28.233Z,7.43
2018-12-12T17:05:02.078Z,7.23
2018-12-12T17:07:26.806Z,6.13
2018-12-12T17:09:55.065Z,7.33
2018-12-12T17:12:23.372Z,6.80
2018-12-12T17:14:51.705Z,6.03
2018-12-12T17:17:19.993Z,6.47
2018-12-12T17:19:48.290Z,8.27
2018-12-12T17:22:16.597Z,6.30
2018-12-12T17:24:44.878Z,8.27
2018-12-12T17:27:13.361Z,7.97
2018-12-12T17:29:41.645Z,8.10
2018-12-12T17:32:10.381Z,7.33
2018-12-12T17:34:38.678Z,6.50
2018-12-12T17:37:06.950Z,7.07
2018-12-12T17:39:35.241Z,6.40
2018-12-12T17:42:03.554Z,7.33
2018-12-12T17:44:31.987Z,7.97
2018-12-12T17:47:00.267Z,8.73
2018-12-12T17:49:28.563Z,6.60
2018-12-12T17:51:56.833Z,17.40
2018-12-12T17:54:25.129Z,8.53
2018-12-12T17:56:53.411Z,6.43
2018-12-12T17:59:21.718Z,7.57
2018-12-12T18:01:50.406Z,6.90
2018-12-12T18:04:18.754Z,7.03
2018-12-12T18:06:47.023Z,7.53
2018-12-12T18:09:15.305Z,7.73
2018-12-12T18:11:43.727Z,7.60
2018-12-12T18:14:12.057Z,7.03
2018-12-12T18:16:40.397Z,6.47
2018-12-12T18:19:08.753Z,6.27
2018-12-12T18:21:38.021Z,8.43
2018-12-12T18:24:07.233Z,7.30
2018-12-12T18:26:37.029Z,7.97
2018-12-12T18:29:06.278Z,8.73
2018-12-12T18:31:35.085Z,7.27
2018-12-12T18:34:04.638Z,7.83
2018-12-12T18:36:33.061Z,7.90
2018-12-12T18:39:01.654Z,10.77
2018-12-12T18:41:30.058Z,7.43
2018-12-12T18:43:58.481Z,8.13
2018-12-12T18:46:26.865Z,7.57
2018-12-12T18:48:55.338Z,7.23
2018-12-12T18:51:24.098Z,7.13
2018-12-12T18:53:52.402Z,9.47
2018-12-12T18:56:20.834Z,12.20
2018-12-12T18:58:49.101Z,7.53
2018-12-12T19:01:17.393Z,6.50
2018-12-12T19:03:45.697Z,6.93
2018-12-12T19:06:14.010Z,10.03
2018-12-12T19:08:42.298Z,7.63
2018-12-12T19:11:10.602Z,7.20
2018-12-12T19:13:38.895Z,6.90
2018-12-12T19:16:07.185Z,7.87
2018-12-12T19:18:36.298Z,6.70
2018-12-12T19:21:04.629Z,7.40
2018-12-12T19:23:33.021Z,8.40
2018-12-12T19:26:01.322Z,7.83
2018-12-12T19:28:29.610Z,6.70
2018-12-12T19:30:57.906Z,7.70
2018-12-12T19:33:26.177Z,6.37
2018-12-12T19:35:56.182Z,6.43
2018-12-12T19:38:24.452Z,9.37
2018-12-12T19:40:52.739Z,11.43
2018-12-12T19:43:21.597Z,6.13
2018-12-12T19:45:49.905Z,6.17
2018-12-12T19:48:18.397Z,5.67
2018-12-12T19:50:46.677Z,5.40
2018-12-12T19:53:14.986Z,6.47
2018-12-12T19:55:43.253Z,6.27
2018-12-12T19:58:11.546Z,5.90
2018-12-12T20:00:39.828Z,5.20
2018-12-12T20:03:08.353Z,6.57
2018-12-12T20:05:41.480Z,6.00
2018-12-12T20:08:07.373Z,74.83
2018-12-12T20:10:35.645Z,6.70
2018-12-12T20:13:04.656Z,6.53
2018-12-12T20:15:38.402Z,6.33
2018-12-12T20:18:07.061Z,5.70
2018-12-12T20:20:36.436Z,6.10
2018-12-12T20:23:05.366Z,6.43
2018-12-12T20:25:34.203Z,5.83
2018-12-12T20:28:02.613Z,5.10
2018-12-12T20:30:35.282Z,5.17
2018-12-12T20:33:02.178Z,4.70
2018-12-12T20:35:30.651Z,5.67
2018-12-12T20:37:59.469Z,4.47
2018-12-12T20:40:27.827Z,5.20
2018-12-12T20:42:57.204Z,4.77
2018-12-12T20:45:25.846Z,4.90
2018-12-12T20:47:54.405Z,5.40
2018-12-12T20:50:22.958Z,5.33
2018-12-12T20:52:51.663Z,4.80
2018-12-12T20:55:20.215Z,5.13
2018-12-12T20:57:50.325Z,5.07
2018-12-12T21:00:18.619Z,7.07
2018-12-12T21:02:47.008Z,5.37
2018-12-12T21:05:15.333Z,5.70
2018-12-12T21:07:43.619Z,6.53
2018-12-12T21:10:11.925Z,8.87
2018-12-12T21:12:40.196Z,6.87
2018-12-12T21:15:08.805Z,6.13
2018-12-12T21:17:37.498Z,5.97
2018-12-12T21:20:07.958Z,6.17
2018-12-12T21:22:36.237Z,6.43
2018-12-12T21:25:05.299Z,5.60
2018-12-12T21:27:33.586Z,5.83
2018-12-12T21:30:01.885Z,5.90
2018-12-12T21:32:30.160Z,6.53
2018-12-12T21:34:58.443Z,5.73
2018-12-12T21:37:27.770Z,6.37
2018-12-12T21:39:56.054Z,6.40
2018-12-12T21:42:24.337Z,8.03
2018-12-12T21:44:52.637Z,7.57
2018-12-12T21:47:20.922Z,7.00
2018-12-12T21:49:49.241Z,6.40
2018-12-12T21:52:17.865Z,24.10
2018-12-12T21:54:46.165Z,7.03
2018-12-12T21:57:14.665Z,7.27
2018-12-12T21:59:42.969Z,8.87
2018-12-12T22:02:11.241Z,8.33
2018-12-12T22:04:39.537Z,6.53
2018-12-12T22:07:07.805Z,6.47
2018-12-12T22:09:36.093Z,7.73
2018-12-12T22:12:04.477Z,6.23
2018-12-12T22:14:32.761Z,7.23
2018-12-12T22:17:01.073Z,7.10
2018-12-12T22:19:29.357Z,7.40
2018-12-12T22:21:57.670Z,6.53
2018-12-12T22:24:25.946Z,6.27
2018-12-12T22:26:54.218Z,7.40
2018-12-12T22:29:22.505Z,9.27
2018-12-12T22:31:51.233Z,7.00
2018-12-12T22:34:19.494Z,7.63
2018-12-12T22:36:47.789Z,7.67
2018-12-12T22:39:16.077Z,7.80
2018-12-12T22:41:44.389Z,8.47
2018-12-12T22:44:12.683Z,7.23
2018-12-12T22:46:40.965Z,8.20
2018-12-12T22:49:09.238Z,7.83
2018-12-12T22:51:37.633Z,7.73
2018-12-12T22:54:05.900Z,8.87
2018-12-12T22:56:34.190Z,8.50
2018-12-12T22:59:02.501Z,7.83
2018-12-12T23:01:30.893Z,8.70
2018-12-12T23:03:59.285Z,8.43
2018-12-12T23:06:27.593Z,8.80
2018-12-12T23:08:55.869Z,8.03
2018-12-12T23:11:25.384Z,7.77
2018-12-12T23:13:54.133Z,8.27
2018-12-12T23:16:22.428Z,7.43
2018-12-12T23:18:50.733Z,8.50
2018-12-12T23:21:19.005Z,9.10
2018-12-12T23:23:47.321Z,10.17
2018-12-12T23:26:15.633Z,7.93
2018-12-12T23:28:43.933Z,7.87
2018-12-12T23:31:12.209Z,9.13
2018-12-12T23:33:40.497Z,8.73
2018-12-12T23:36:08.754Z,9.37
2018-12-12T23:38:37.045Z,9.73
2018-12-12T23:41:05.313Z,8.33
2018-12-12T23:43:33.653Z,8.63
2018-12-12T23:46:02.080Z,10.67
2018-12-12T23:48:30.412Z,9.93
2018-12-12T23:50:58.737Z,8.47
2018-12-12T23:53:27.055Z,9.40
2018-12-12T23:55:55.367Z,9.03
2018-12-12T23:58:23.694Z,9.83
